Time;durP1;ratioP1;P1;durP2;ratioP2;P2;SDS_P1;SDS_P2;PMS_P1;PMS_P2;Temp;Humidity;BMP_temperature;BMP_pressure;BME280_temperature;BME280_humidity;BME280_pressure;Samples;Min_cycle;Max_cycle;Signal;HPM_P1;HPM_P2
2022/07/26 00:01:32;;;;;;;8.18;2.15;;;;;;;;;;5066781;28;20463;-70
2022/07/26 00:03:59;;;;;;;8.10;1.85;;;;;;;;;;5062719;28;20375;-70
2022/07/26 00:06:25;;;;;;;12.65;1.90;;;;;;;;;;5069096;28;20025;-71
2022/07/26 00:08:52;;;;;;;8.50;1.75;;;;;;;;;;5064170;28;20028;-71
2022/07/26 00:11:18;;;;;;;12.00;2.10;;;;;;;;;;5062661;28;20037;-70
2022/07/26 00:13:44;;;;;;;7.03;2.08;;;;;;;;;;5071590;28;20024;-68
2022/07/26 00:16:11;;;;;;;8.45;1.75;;;;;;;;;;5070573;28;20024;-69
2022/07/26 00:18:37;;;;;;;7.95;1.70;;;;;;;;;;5065120;28;20023;-68
2022/07/26 00:21:04;;;;;;;9.00;1.98;;;;;;;;;;5068855;28;20024;-68
2022/07/26 00:23:30;;;;;;;6.72;2.22;;;;;;;;;;5066763;28;20043;-69
2022/07/26 00:25:56;;;;;;;7.80;2.30;;;;;;;;;;5068231;28;20085;-68
2022/07/26 00:28:22;;;;;;;6.18;2.03;;;;;;;;;;5061754;28;20055;-69
2022/07/26 00:30:48;;;;;;;6.82;2.00;;;;;;;;;;5069017;28;20020;-69
2022/07/26 00:33:14;;;;;;;14.63;2.20;;;;;;;;;;5065939;28;20063;-68
2022/07/26 00:35:40;;;;;;;9.25;2.20;;;;;;;;;;5069232;28;20028;-73
2022/07/26 00:38:07;;;;;;;10.70;2.50;;;;;;;;;;5062016;28;20251;-72
2022/07/26 00:40:33;;;;;;;8.05;2.40;;;;;;;;;;5065652;28;20052;-72
2022/07/26 00:42:59;;;;;;;8.02;2.58;;;;;;;;;;5069315;28;20027;-72
2022/07/26 00:45:25;;;;;;;9.00;2.80;;;;;;;;;;5067505;28;20032;-68
2022/07/26 00:47:51;;;;;;;10.27;1.90;;;;;;;;;;5061254;28;20021;-67
2022/07/26 00:50:18;;;;;;;8.20;2.30;;;;;;;;;;5067438;28;20043;-68
2022/07/26 00:52:45;;;;;;;10.65;2.20;;;;;;;;;;5065055;28;20086;-68
2022/07/26 00:55:12;;;;;;;9.57;2.40;;;;;;;;;;5069097;28;20028;-70
2022/07/26 00:57:39;;;;;;;21.30;2.70;;;;;;;;;;5069514;28;20115;-70
2022/07/26 01:00:07;;;;;;;11.82;1.88;;;;;;;;;;5062613;28;20023;-70
2022/07/26 01:02:33;;;;;;;9.65;2.40;;;;;;;;;;5062600;28;21010;-70
2022/07/26 01:04:59;;;;;;;14.75;2.20;;;;;;;;;;5067965;28;20356;-70
2022/07/26 01:07:25;;;;;;;6.55;1.95;;;;;;;;;;5067710;28;20120;-69
2022/07/26 01:09:51;;;;;;;9.68;1.73;;;;;;;;;;5070364;28;20029;-69
2022/07/26 01:12:18;;;;;;;11.30;2.13;;;;;;;;;;5064665;28;20032;-68
2022/07/26 01:14:44;;;;;;;7.68;1.73;;;;;;;;;;5065340;28;20398;-68
2022/07/26 01:17:11;;;;;;;14.18;1.85;;;;;;;;;;5068046;28;20024;-68
2022/07/26 01:19:37;;;;;;;6.95;1.98;;;;;;;;;;5068306;28;20016;-68
2022/07/26 01:22:03;;;;;;;6.70;2.10;;;;;;;;;;5068990;28;20398;-70
2022/07/26 01:24:30;;;;;;;13.38;2.22;;;;;;;;;;5065632;28;20036;-71
2022/07/26 01:26:56;;;;;;;18.70;2.25;;;;;;;;;;5070008;28;20021;-71
2022/07/26 01:29:25;;;;;;;17.90;2.75;;;;;;;;;;5069580;28;20048;-71
2022/07/26 01:31:53;;;;;;;11.38;2.30;;;;;;;;;;5064217;28;20057;-70
2022/07/26 01:34:19;;;;;;;12.50;3.28;;;;;;;;;;5066202;28;20036;-70
2022/07/26 01:36:45;;;;;;;11.88;2.15;;;;;;;;;;5064521;28;20123;-70
2022/07/26 01:39:11;;;;;;;12.23;2.63;;;;;;;;;;5064343;28;20067;-70
2022/07/26 01:41:38;;;;;;;11.77;3.10;;;;;;;;;;5060550;28;20444;-70
2022/07/26 01:44:04;;;;;;;15.18;2.67;;;;;;;;;;5061840;28;20027;-70
2022/07/26 01:46:30;;;;;;;10.15;2.40;;;;;;;;;;5066833;28;20706;-70
2022/07/26 01:48:56;;;;;;;7.05;1.85;;;;;;;;;;5063306;28;20020;-70
2022/07/26 01:51:23;;;;;;;9.82;2.63;;;;;;;;;;5068600;28;20111;-70
2022/07/26 01:53:49;;;;;;;12.88;2.00;;;;;;;;;;5069916;28;20401;-70
2022/07/26 01:56:15;;;;;;;12.75;2.00;;;;;;;;;;5067875;28;20021;-70
2022/07/26 01:58:41;;;;;;;9.10;2.10;;;;;;;;;;5065758;28;20116;-70
2022/07/26 02:01:08;;;;;;;9.25;1.58;;;;;;;;;;5065208;28;20529;-70
2022/07/26 02:03:35;;;;;;;6.63;1.75;;;;;;;;;;5061879;28;20060;-70
2022/07/26 02:06:02;;;;;;;10.95;2.15;;;;;;;;;;5068817;28;20376;-70
2022/07/26 02:08:28;;;;;;;12.13;2.70;;;;;;;;;;5066179;28;20025;-70
2022/07/26 02:11:00;;;;;;;9.35;1.60;;;;;;;;;;5063747;28;20348;-70
2022/07/26 02:13:29;;;;;;;8.13;2.00;;;;;;;;;;5062699;28;20421;-71
2022/07/26 02:15:57;;;;;;;9.25;1.70;;;;;;;;;;5068664;28;20081;-70
2022/07/26 02:18:24;;;;;;;10.65;2.03;;;;;;;;;;5062060;28;20078;-70
2022/07/26 02:20:50;;;;;;;8.63;1.35;;;;;;;;;;5068857;28;20048;-70
2022/07/26 02:23:16;;;;;;;5.35;1.38;;;;;;;;;;5069960;28;20009;-70
2022/07/26 02:25:43;;;;;;;15.93;1.85;;;;;;;;;;5067671;28;20054;-71
2022/07/26 02:28:09;;;;;;;6.57;1.67;;;;;;;;;;5065575;28;20045;-69
2022/07/26 02:30:35;;;;;;;10.48;1.60;;;;;;;;;;5062144;28;20037;-71
2022/07/26 02:33:01;;;;;;;10.02;1.70;;;;;;;;;;5066085;28;20028;-71
2022/07/26 02:35:28;;;;;;;8.95;1.60;;;;;;;;;;5066518;28;20486;-71
2022/07/26 02:37:54;;;;;;;9.48;1.55;;;;;;;;;;5069443;28;20107;-70
2022/07/26 02:40:20;;;;;;;9.23;1.60;;;;;;;;;;5048278;28;20021;-71
2022/07/26 02:42:46;;;;;;;2.85;1.33;;;;;;;;;;5070805;28;20155;-71
2022/07/26 02:45:12;;;;;;;6.53;1.50;;;;;;;;;;5069825;28;20035;-71
2022/07/26 02:47:46;;;;;;;5.97;1.65;;;;;;;;;;5067384;28;20036;-71
2022/07/26 02:50:12;;;;;;;15.05;1.63;;;;;;;;;;5067858;28;20028;-68
2022/07/26 02:52:38;;;;;;;6.90;1.15;;;;;;;;;;5071650;28;20032;-69
2022/07/26 02:55:05;;;;;;;8.15;1.38;;;;;;;;;;5065157;28;20024;-68
2022/07/26 02:57:31;;;;;;;7.25;1.88;;;;;;;;;;5070002;28;20020;-69
2022/07/26 02:59:57;;;;;;;6.32;1.75;;;;;;;;;;5070964;28;20021;-69
2022/07/26 03:02:23;;;;;;;6.20;1.80;;;;;;;;;;5063891;28;20079;-70
2022/07/26 03:04:49;;;;;;;9.75;1.80;;;;;;;;;;5081604;28;20029;-69
2022/07/26 03:07:15;;;;;;;12.95;3.00;;;;;;;;;;5064506;28;20493;-69
2022/07/26 03:09:41;;;;;;;9.82;1.55;;;;;;;;;;5066538;28;20039;-68
2022/07/26 03:12:07;;;;;;;8.07;1.35;;;;;;;;;;5066830;28;20116;-68
2022/07/26 03:14:33;;;;;;;6.65;1.13;;;;;;;;;;5069321;28;20546;-69
2022/07/26 03:16:59;;;;;;;8.13;1.40;;;;;;;;;;5068944;28;20035;-70
2022/07/26 03:19:26;;;;;;;9.65;1.35;;;;;;;;;;5065922;28;21750;-70
2022/07/26 03:21:52;;;;;;;6.88;1.38;;;;;;;;;;5068818;28;20074;-70
2022/07/26 03:24:18;;;;;;;5.78;1.20;;;;;;;;;;5073255;28;20444;-70
2022/07/26 03:26:44;;;;;;;4.38;1.42;;;;;;;;;;5067611;28;20029;-69
2022/07/26 03:29:10;;;;;;;5.32;1.02;;;;;;;;;;5073229;28;20102;-70
2022/07/26 03:31:36;;;;;;;8.07;1.67;;;;;;;;;;5065108;28;20569;-69
2022/07/26 03:34:02;;;;;;;5.05;1.30;;;;;;;;;;5065643;28;20047;-71
2022/07/26 03:36:29;;;;;;;4.45;1.20;;;;;;;;;;5065246;28;20025;-71
2022/07/26 03:38:55;;;;;;;5.07;1.42;;;;;;;;;;5066710;28;20031;-70
2022/07/26 03:41:21;;;;;;;3.75;1.35;;;;;;;;;;5067838;28;20060;-68
2022/07/26 03:43:47;;;;;;;5.65;1.00;;;;;;;;;;5071005;28;20390;-68
2022/07/26 03:46:13;;;;;;;7.95;1.20;;;;;;;;;;5066050;28;20031;-69
2022/07/26 03:48:39;;;;;;;7.38;1.52;;;;;;;;;;5066691;28;20024;-69
2022/07/26 03:51:05;;;;;;;9.07;1.88;;;;;;;;;;5069385;28;20032;-68
2022/07/26 03:53:33;;;;;;;7.30;1.50;;;;;;;;;;5068666;28;20027;-69
2022/07/26 03:58:44;;;;;;;6.07;1.33;;;;;;;;;;5067669;28;20037;-70
2022/07/26 04:01:10;;;;;;;6.35;1.45;;;;;;;;;;5065609;28;20024;-70
2022/07/26 04:03:36;;;;;;;4.63;1.30;;;;;;;;;;5063734;28;20103;-71
2022/07/26 04:06:03;;;;;;;9.75;1.25;;;;;;;;;;5071593;28;20032;-71
2022/07/26 04:08:29;;;;;;;8.45;1.83;;;;;;;;;;5068686;28;20021;-71
2022/07/26 04:10:55;;;;;;;5.93;1.20;;;;;;;;;;5059414;28;20029;-70
2022/07/26 04:13:22;;;;;;;10.15;1.48;;;;;;;;;;5067208;28;20040;-70
2022/07/26 04:15:49;;;;;;;9.75;1.40;;;;;;;;;;5069615;28;20021;-69
2022/07/26 04:18:15;;;;;;;3.55;1.27;;;;;;;;;;5065536;28;20032;-69
2022/07/26 04:20:42;;;;;;;7.10;1.52;;;;;;;;;;5064719;28;20020;-68
2022/07/26 04:23:08;;;;;;;5.03;1.27;;;;;;;;;;5088683;28;20032;-68
2022/07/26 04:25:34;;;;;;;6.22;1.25;;;;;;;;;;5068276;28;20029;-68
2022/07/26 04:28:01;;;;;;;8.60;1.42;;;;;;;;;;5067908;28;20490;-68
2022/07/26 04:30:27;;;;;;;10.52;1.48;;;;;;;;;;5065871;28;20055;-68
2022/07/26 04:32:53;;;;;;;4.68;1.23;;;;;;;;;;5063378;28;20016;-68
2022/07/26 04:35:20;;;;;;;11.45;2.10;;;;;;;;;;5069652;28;20039;-70
2022/07/26 04:37:46;;;;;;;5.22;1.50;;;;;;;;;;5071254;28;20100;-70
2022/07/26 04:40:16;;;;;;;9.63;1.58;;;;;;;;;;5060923;28;20151;-70
2022/07/26 04:42:42;;;;;;;14.20;1.95;;;;;;;;;;5060894;28;20044;-70
2022/07/26 04:45:09;;;;;;;5.40;1.50;;;;;;;;;;5070391;28;20013;-70
2022/07/26 04:47:36;;;;;;;8.98;1.38;;;;;;;;;;5063624;28;20029;-70
2022/07/26 04:50:02;;;;;;;4.32;1.65;;;;;;;;;;5063055;28;20048;-69
2022/07/26 04:52:28;;;;;;;8.20;1.67;;;;;;;;;;5061678;28;20029;-69
2022/07/26 04:54:54;;;;;;;12.30;1.52;;;;;;;;;;5070313;28;20032;-69
2022/07/26 04:57:20;;;;;;;6.32;1.20;;;;;;;;;;5066978;28;20039;-69
2022/07/26 04:59:47;;;;;;;8.55;1.40;;;;;;;;;;5068560;28;20097;-69
2022/07/26 05:02:14;;;;;;;4.38;1.30;;;;;;;;;;5062299;28;20039;-69
2022/07/26 05:04:41;;;;;;;8.60;1.58;;;;;;;;;;5069399;28;20021;-69
2022/07/26 05:07:08;;;;;;;5.55;1.55;;;;;;;;;;5068259;28;20029;-70
2022/07/26 05:09:34;;;;;;;6.32;1.63;;;;;;;;;;5067613;28;20254;-69
2022/07/26 05:12:00;;;;;;;5.60;2.40;;;;;;;;;;5066119;28;20090;-69
2022/07/26 05:14:26;;;;;;;2.90;1.23;;;;;;;;;;5061533;28;20033;-70
2022/07/26 05:16:52;;;;;;;7.70;1.50;;;;;;;;;;5058284;28;20036;-68
2022/07/26 05:19:19;;;;;;;5.10;1.30;;;;;;;;;;5055740;28;20025;-67
2022/07/26 05:21:45;;;;;;;5.70;1.48;;;;;;;;;;5059464;28;20565;-67
2022/07/26 05:24:11;;;;;;;7.93;2.05;;;;;;;;;;5053732;28;20075;-67
2022/07/26 05:26:37;;;;;;;4.30;1.42;;;;;;;;;;5059768;28;20025;-67
2022/07/26 05:29:03;;;;;;;9.57;1.50;;;;;;;;;;5051925;28;20045;-67
2022/07/26 05:31:29;;;;;;;8.52;1.80;;;;;;;;;;5052783;28;20033;-66
2022/07/26 05:33:56;;;;;;;4.13;1.35;;;;;;;;;;5062388;28;20360;-67
2022/07/26 05:36:22;;;;;;;8.88;1.92;;;;;;;;;;5063080;28;20032;-69
2022/07/26 05:38:48;;;;;;;6.03;1.17;;;;;;;;;;5062325;28;20379;-69
2022/07/26 05:41:14;;;;;;;11.98;1.88;;;;;;;;;;5060132;28;20036;-68
2022/07/26 05:43:40;;;;;;;14.65;2.30;;;;;;;;;;5049379;28;20078;-68
2022/07/26 05:46:07;;;;;;;8.73;1.42;;;;;;;;;;5060491;28;20025;-68
2022/07/26 05:48:33;;;;;;;8.68;1.88;;;;;;;;;;5056206;28;20032;-67
2022/07/26 05:51:00;;;;;;;13.13;1.40;;;;;;;;;;5060515;28;20036;-67
2022/07/26 05:53:26;;;;;;;8.00;1.67;;;;;;;;;;5059574;28;20074;-68
2022/07/26 05:55:52;;;;;;;7.18;2.08;;;;;;;;;;5055028;28;20017;-68
2022/07/26 05:58:19;;;;;;;9.35;1.80;;;;;;;;;;5041375;28;20028;-67
2022/07/26 06:00:45;;;;;;;6.80;1.58;;;;;;;;;;5056585;28;20028;-66
2022/07/26 06:03:23;;;;;;;7.45;1.70;;;;;;;;;;5058213;28;20051;-68
2022/07/26 06:05:53;;;;;;;9.60;1.45;;;;;;;;;;5057846;28;20490;-68
2022/07/26 06:08:20;;;;;;;7.95;1.67;;;;;;;;;;5058719;28;20091;-67
2022/07/26 06:10:47;;;;;;;5.10;1.77;;;;;;;;;;5056687;28;20486;-67
2022/07/26 06:13:13;;;;;;;5.93;1.52;;;;;;;;;;5062369;28;20086;-72
2022/07/26 06:15:39;;;;;;;7.20;1.40;;;;;;;;;;5057993;28;20070;-73
2022/07/26 06:18:05;;;;;;;8.85;1.38;;;;;;;;;;5058293;28;20438;-75
2022/07/26 06:20:32;;;;;;;11.10;1.33;;;;;;;;;;5065834;28;20074;-72
2022/07/26 06:22:58;;;;;;;8.68;1.27;;;;;;;;;;5065317;28;20025;-73
2022/07/26 06:25:25;;;;;;;6.10;1.30;;;;;;;;;;5068763;28;20119;-73
2022/07/26 06:27:51;;;;;;;5.93;1.38;;;;;;;;;;5068193;28;20540;-74
2022/07/26 06:30:17;;;;;;;5.97;1.70;;;;;;;;;;5065367;28;20062;-74
2022/07/26 06:32:43;;;;;;;3.15;1.20;;;;;;;;;;5062476;28;20064;-74
2022/07/26 06:35:10;;;;;;;14.20;1.67;;;;;;;;;;5066661;28;20032;-75
2022/07/26 06:37:36;;;;;;;12.50;1.55;;;;;;;;;;5064853;28;20025;-74
2022/07/26 06:40:03;;;;;;;8.55;1.90;;;;;;;;;;5067478;28;20028;-74
2022/07/26 06:42:29;;;;;;;5.13;1.50;;;;;;;;;;5064333;28;20012;-74
2022/07/26 06:44:55;;;;;;;10.32;1.50;;;;;;;;;;5068857;28;20028;-74
2022/07/26 06:47:21;;;;;;;7.53;1.33;;;;;;;;;;5062138;28;20051;-74
2022/07/26 06:49:47;;;;;;;8.48;1.35;;;;;;;;;;5066371;28;20048;-74
2022/07/26 06:52:14;;;;;;;4.93;1.33;;;;;;;;;;5068315;28;20401;-74
2022/07/26 06:54:40;;;;;;;7.13;2.17;;;;;;;;;;5069633;28;20036;-74
2022/07/26 06:57:06;;;;;;;13.20;1.60;;;;;;;;;;5069471;28;20077;-74
2022/07/26 06:59:32;;;;;;;8.32;1.38;;;;;;;;;;5067575;28;20036;-74
2022/07/26 07:02:00;;;;;;;6.15;1.15;;;;;;;;;;5067992;28;20147;-74
2022/07/26 07:04:30;;;;;;;4.55;1.17;;;;;;;;;;5061455;28;20044;-74
2022/07/26 07:07:01;;;;;;;7.97;1.35;;;;;;;;;;5063349;28;20162;-75
2022/07/26 07:09:27;;;;;;;8.27;1.30;;;;;;;;;;5083766;28;20379;-75
2022/07/26 07:11:53;;;;;;;6.57;1.40;;;;;;;;;;5068805;28;20029;-75
2022/07/26 07:14:20;;;;;;;7.38;1.50;;;;;;;;;;5067465;28;20125;-74
2022/07/26 07:16:46;;;;;;;6.57;1.20;;;;;;;;;;5063844;28;20033;-74
2022/07/26 07:19:12;;;;;;;7.43;1.58;;;;;;;;;;5068961;28;20029;-74
2022/07/26 07:21:38;;;;;;;5.30;1.27;;;;;;;;;;5064168;28;20036;-74
2022/07/26 07:24:05;;;;;;;9.30;1.27;;;;;;;;;;5061690;28;20506;-75
2022/07/26 07:26:31;;;;;;;3.13;1.27;;;;;;;;;;5068756;28;20040;-75
2022/07/26 07:28:57;;;;;;;9.68;1.10;;;;;;;;;;5064526;28;20071;-75
2022/07/26 07:31:24;;;;;;;6.68;1.35;;;;;;;;;;5065126;28;20092;-75
2022/07/26 07:33:50;;;;;;;4.90;1.50;;;;;;;;;;5068254;28;20037;-76
2022/07/26 07:36:16;;;;;;;6.90;1.58;;;;;;;;;;5068965;28;20474;-76
2022/07/26 07:38:44;;;;;;;8.77;1.45;;;;;;;;;;5063486;28;20024;-74
2022/07/26 07:41:10;;;;;;;5.97;1.83;;;;;;;;;;5068061;28;20021;-75
2022/07/26 07:43:36;;;;;;;4.53;1.85;;;;;;;;;;5069806;28;20506;-75
2022/07/26 07:46:03;;;;;;;8.57;1.67;;;;;;;;;;5064896;28;20545;-75
2022/07/26 07:48:29;;;;;;;6.68;1.77;;;;;;;;;;5068100;28;20458;-74
2022/07/26 07:50:55;;;;;;;4.85;1.15;;;;;;;;;;5058717;28;20029;-74
2022/07/26 07:53:21;;;;;;;9.13;1.33;;;;;;;;;;5065007;28;20067;-75
2022/07/26 07:55:48;;;;;;;2.17;1.20;;;;;;;;;;5064842;28;20055;-75
2022/07/26 07:58:15;;;;;;;5.63;1.33;;;;;;;;;;5062668;28;20086;-75
2022/07/26 08:00:41;;;;;;;9.88;1.58;;;;;;;;;;5066879;28;20530;-75
2022/07/26 08:03:07;;;;;;;3.55;1.15;;;;;;;;;;5065962;28;20460;-76
2022/07/26 08:05:33;;;;;;;5.82;1.15;;;;;;;;;;5064250;28;20020;-76
2022/07/26 08:08:02;;;;;;;8.10;1.35;;;;;;;;;;5062436;28;20032;-76
2022/07/26 08:10:28;;;;;;;7.40;1.63;;;;;;;;;;5068495;28;20029;-75
2022/07/26 08:12:54;;;;;;;4.50;1.20;;;;;;;;;;5065164;28;20093;-75
2022/07/26 08:15:22;;;;;;;6.10;1.30;;;;;;;;;;5067440;28;20043;-74
2022/07/26 08:17:48;;;;;;;4.57;1.10;;;;;;;;;;5063403;28;20509;-74
2022/07/26 08:20:14;;;;;;;6.90;1.27;;;;;;;;;;5068566;28;20028;-74
2022/07/26 08:22:41;;;;;;;9.57;1.20;;;;;;;;;;5066663;28;20025;-74
2022/07/26 08:25:08;;;;;;;5.65;1.10;;;;;;;;;;5062348;28;20472;-75
2022/07/26 08:27:34;;;;;;;7.43;1.40;;;;;;;;;;5060272;28;20455;-74
2022/07/26 08:30:00;;;;;;;7.53;1.48;;;;;;;;;;5062220;28;20025;-75
2022/07/26 08:32:26;;;;;;;6.35;1.58;;;;;;;;;;5063909;28;20036;-74
2022/07/26 08:34:52;;;;;;;4.97;1.50;;;;;;;;;;5063793;28;20059;-74
2022/07/26 08:37:18;;;;;;;7.30;1.40;;;;;;;;;;5065755;28;20024;-75
2022/07/26 08:39:46;;;;;;;6.32;1.67;;;;;;;;;;5059712;28;20021;-72
2022/07/26 08:42:16;;;;;;;7.25;1.13;;;;;;;;;;5066137;28;20056;-72
2022/07/26 08:44:46;;;;;;;5.95;1.08;;;;;;;;;;5062657;28;20079;-70
2022/07/26 08:47:12;;;;;;;2.97;0.90;;;;;;;;;;5065294;28;20060;-72
2022/07/26 08:49:39;;;;;;;5.15;1.48;;;;;;;;;;5068183;28;20107;-73
2022/07/26 08:52:05;;;;;;;5.43;1.48;;;;;;;;;;5062749;28;20028;-74
2022/07/26 08:54:32;;;;;;;7.18;1.15;;;;;;;;;;5067595;28;20029;-74
2022/07/26 08:56:58;;;;;;;5.55;1.00;;;;;;;;;;5067405;28;21124;-75
2022/07/26 08:59:24;;;;;;;3.80;0.95;;;;;;;;;;5057926;28;20027;-74
2022/07/26 09:01:53;;;;;;;5.05;1.27;;;;;;;;;;5058603;28;20025;-73
2022/07/26 09:04:21;;;;;;;7.30;1.60;;;;;;;;;;5058542;28;20501;-74
2022/07/26 09:06:54;;;;;;;6.07;1.42;;;;;;;;;;5058923;28;20482;-73
2022/07/26 09:09:20;;;;;;;4.00;1.27;;;;;;;;;;5058032;28;20035;-73
2022/07/26 09:11:47;;;;;;;4.72;0.93;;;;;;;;;;5061441;28;20021;-74
2022/07/26 09:14:13;;;;;;;5.07;1.13;;;;;;;;;;5060650;28;20120;-74
2022/07/26 09:16:40;;;;;;;3.97;0.65;;;;;;;;;;5058188;28;20066;-74
2022/07/26 09:19:17;;;;;;;4.50;1.40;;;;;;;;;;5060824;28;20069;-74
2022/07/26 09:21:45;;;;;;;10.88;1.58;;;;;;;;;;5068218;28;20478;-75
2022/07/26 09:24:11;;;;;;;5.22;1.48;;;;;;;;;;5066068;28;20020;-76
2022/07/26 09:26:37;;;;;;;4.82;1.65;;;;;;;;;;5066780;28;20390;-75
2022/07/26 09:29:05;;;;;;;10.75;2.03;;;;;;;;;;5066674;28;20049;-75
2022/07/26 09:31:31;;;;;;;3.90;1.17;;;;;;;;;;5064366;28;20051;-76
2022/07/26 09:33:58;;;;;;;4.60;0.90;;;;;;;;;;5062842;28;20052;-76
2022/07/26 09:36:25;;;;;;;6.00;1.20;;;;;;;;;;5062570;28;20104;-76
2022/07/26 09:38:52;;;;;;;7.40;1.30;;;;;;;;;;5064663;28;20054;-76
2022/07/26 09:41:29;;;;;;;6.45;1.35;;;;;;;;;;5062471;28;20028;-76
2022/07/26 09:43:57;;;;;;;5.07;1.52;;;;;;;;;;5067193;28;20013;-75
2022/07/26 09:46:24;;;;;;;5.90;1.13;;;;;;;;;;5064831;28;20028;-75
2022/07/26 09:48:51;;;;;;;6.53;1.20;;;;;;;;;;5062880;28;20043;-73
2022/07/26 09:51:36;;;;;;;6.35;1.17;;;;;;;;;;5064571;28;20074;-74
2022/07/26 09:54:02;;;;;;;4.50;0.80;;;;;;;;;;5068670;28;20029;-76
2022/07/26 09:56:42;;;;;;;5.95;1.00;;;;;;;;;;5071934;28;20029;-74
2022/07/26 09:59:08;;;;;;;4.30;1.35;;;;;;;;;;5065522;28;20472;-75
2022/07/26 10:01:34;;;;;;;2.85;0.95;;;;;;;;;;5068206;28;20074;-75
2022/07/26 10:04:01;;;;;;;2.55;0.80;;;;;;;;;;5069838;28;20048;-75
2022/07/26 10:06:27;;;;;;;3.50;0.75;;;;;;;;;;5067755;28;20552;-75
2022/07/26 10:08:53;;;;;;;3.08;1.20;;;;;;;;;;5069184;28;20064;-75
2022/07/26 10:11:19;;;;;;;7.63;0.88;;;;;;;;;;5067275;28;20032;-75
2022/07/26 10:13:46;;;;;;;4.20;0.93;;;;;;;;;;5064800;28;20027;-74
2022/07/26 10:16:31;;;;;;;2.67;0.90;;;;;;;;;;5066208;28;20559;-75
2022/07/26 10:18:58;;;;;;;2.05;0.70;;;;;;;;;;5069650;28;20043;-74
2022/07/26 10:21:31;;;;;;;4.63;0.80;;;;;;;;;;5065905;28;20115;-75
2022/07/26 10:23:58;;;;;;;3.33;0.80;;;;;;;;;;5068612;28;20025;-73
2022/07/26 10:26:30;;;;;;;0.95;0.50;;;;;;;;;;5070241;28;20716;-74
2022/07/26 10:29:15;;;;;;;2.55;0.75;;;;;;;;;;5066700;28;20174;-73
2022/07/26 10:31:42;;;;;;;4.38;1.00;;;;;;;;;;5062112;28;21204;-76
2022/07/26 10:34:09;;;;;;;4.07;0.82;;;;;;;;;;5060094;28;20033;-74
2022/07/26 10:36:37;;;;;;;1.98;0.68;;;;;;;;;;5071892;28;20448;-68
2022/07/26 10:39:06;;;;;;;1.98;0.40;;;;;;;;;;5066710;28;20199;-68
2022/07/26 10:41:34;;;;;;;1.42;0.73;;;;;;;;;;5067015;28;20020;-68
2022/07/26 10:44:33;;;;;;;3.40;0.98;;;;;;;;;;5064966;28;20027;-68
2022/07/26 10:47:10;;;;;;;2.33;0.60;;;;;;;;;;5002609;28;20079;-68
2022/07/26 10:49:37;;;;;;;2.42;0.75;;;;;;;;;;4996160;28;20842;-68
2022/07/26 10:52:06;;;;;;;3.53;0.90;;;;;;;;;;5000920;28;20041;-68
2022/07/26 10:54:32;;;;;;;1.60;0.95;;;;;;;;;;5007738;28;20050;-68
2022/07/26 10:56:58;;;;;;;2.47;0.88;;;;;;;;;;5010815;28;20045;-68
2022/07/26 10:59:33;;;;;;;2.53;0.70;;;;;;;;;;4988763;28;20037;-68
2022/07/26 11:01:59;;;;;;;1.55;0.60;;;;;;;;;;4993110;28;20116;-68
2022/07/26 11:04:25;;;;;;;4.32;0.77;;;;;;;;;;4999166;28;20029;-68
2022/07/26 11:06:52;;;;;;;2.45;0.73;;;;;;;;;;5004698;28;20120;-68
2022/07/26 11:09:18;;;;;;;2.40;0.50;;;;;;;;;;5002575;28;20064;-68
2022/07/26 11:11:45;;;;;;;4.57;0.80;;;;;;;;;;5000976;28;20609;-69
2022/07/26 11:14:13;;;;;;;2.95;0.82;;;;;;;;;;4997370;28;20029;-69
2022/07/26 11:16:43;;;;;;;3.15;1.13;;;;;;;;;;4985508;28;20030;-69
2022/07/26 11:19:16;;;;;;;4.68;0.88;;;;;;;;;;5006425;28;20037;-69
2022/07/26 11:21:43;;;;;;;2.05;0.70;;;;;;;;;;5016889;28;20041;-68
2022/07/26 11:24:09;;;;;;;2.80;0.80;;;;;;;;;;5063649;28;20052;-68
2022/07/26 11:26:46;;;;;;;2.20;0.63;;;;;;;;;;5069890;28;20020;-68
2022/07/26 11:29:12;;;;;;;3.13;0.80;;;;;;;;;;5082485;28;20040;-76
2022/07/26 11:31:40;;;;;;;1.83;0.80;;;;;;;;;;5068095;28;20115;-76
2022/07/26 11:34:07;;;;;;;2.13;0.50;;;;;;;;;;5070735;28;20429;-76
2022/07/26 11:36:34;;;;;;;3.13;1.63;;;;;;;;;;5069251;28;20036;-76
2022/07/26 11:39:01;;;;;;;6.43;1.25;;;;;;;;;;5066942;28;20422;-76
2022/07/26 11:41:28;;;;;;;4.60;0.90;;;;;;;;;;5070726;28;20494;-76
2022/07/26 11:43:55;;;;;;;4.03;0.70;;;;;;;;;;5066638;28;20020;-76
2022/07/26 11:46:23;;;;;;;3.03;0.90;;;;;;;;;;5067725;28;20056;-76
2022/07/26 11:48:50;;;;;;;7.15;0.80;;;;;;;;;;5070262;28;20086;-76
2022/07/26 11:51:17;;;;;;;8.20;1.00;;;;;;;;;;5069361;28;20360;-76
2022/07/26 11:53:43;;;;;;;5.20;0.85;;;;;;;;;;5068100;28;20421;-76
2022/07/26 11:56:17;;;;;;;2.60;1.05;;;;;;;;;;5071747;28;20397;-76
2022/07/26 11:58:44;;;;;;;5.00;1.08;;;;;;;;;;5068942;28;20043;-76
2022/07/26 12:01:12;;;;;;;4.50;1.15;;;;;;;;;;5067938;28;20384;-76
2022/07/26 12:03:39;;;;;;;6.25;0.82;;;;;;;;;;5063821;28;21523;-76
2022/07/26 12:06:06;;;;;;;3.72;1.08;;;;;;;;;;5070045;28;20016;-76
2022/07/26 12:08:40;;;;;;;5.55;1.50;;;;;;;;;;5071254;28;20037;-76
2022/07/26 12:11:06;;;;;;;5.85;0.93;;;;;;;;;;5079494;28;20032;-76
2022/07/26 12:13:32;;;;;;;2.40;0.95;;;;;;;;;;5070067;28;20402;-76
2022/07/26 12:15:59;;;;;;;2.67;0.90;;;;;;;;;;5066465;28;20382;-76
2022/07/26 12:18:26;;;;;;;3.30;1.20;;;;;;;;;;5068256;28;20032;-76
2022/07/26 12:21:04;;;;;;;5.38;1.55;;;;;;;;;;5068071;28;20286;-76
2022/07/26 12:23:51;;;;;;;2.85;0.93;;;;;;;;;;5071380;28;20028;-76
2022/07/26 12:26:21;;;;;;;3.45;1.20;;;;;;;;;;5066285;28;20111;-76
2022/07/26 12:28:47;;;;;;;4.60;1.10;;;;;;;;;;5071157;28;20140;-76
2022/07/26 12:31:28;;;;;;;4.47;1.33;;;;;;;;;;5070155;28;20479;-75
2022/07/26 12:33:54;;;;;;;7.93;1.50;;;;;;;;;;5064437;28;20028;-76
2022/07/26 12:36:21;;;;;;;9.80;1.75;;;;;;;;;;5067999;28;20025;-76
2022/07/26 12:38:47;;;;;;;7.50;1.40;;;;;;;;;;5070486;28;20041;-75
2022/07/26 12:41:30;;;;;;;7.53;1.20;;;;;;;;;;5072363;28;20032;-75
2022/07/26 12:43:56;;;;;;;;;;;;;;;;;;5068556;28;20131;-75
2022/07/26 12:46:22;;;;;;;4.63;1.50;;;;;;;;;;5067654;28;19922;-75
2022/07/26 12:48:48;;;;;;;6.70;1.70;;;;;;;;;;5067475;28;20402;-75
2022/07/26 12:51:14;;;;;;;10.93;1.70;;;;;;;;;;5071970;28;20041;-75
2022/07/26 12:53:40;;;;;;;8.57;1.48;;;;;;;;;;5069032;28;20033;-76
2022/07/26 12:56:06;;;;;;;7.57;1.60;;;;;;;;;;5068848;28;20025;-76
2022/07/26 12:58:32;;;;;;;5.82;1.50;;;;;;;;;;5067400;28;20505;-76
2022/07/26 13:00:59;;;;;;;5.63;1.95;;;;;;;;;;5064528;28;20046;-76
2022/07/26 13:03:25;;;;;;;7.53;1.23;;;;;;;;;;5065109;28;20104;-76
2022/07/26 13:05:51;;;;;;;3.85;1.30;;;;;;;;;;5074728;28;20086;-76
2022/07/26 13:08:17;;;;;;;4.90;1.10;;;;;;;;;;5069022;28;20490;-75
2022/07/26 13:10:43;;;;;;;4.82;1.17;;;;;;;;;;5067577;28;20034;-76
2022/07/26 13:13:09;;;;;;;2.65;1.00;;;;;;;;;;5070561;28;20035;-75
2022/07/26 13:15:35;;;;;;;10.27;1.05;;;;;;;;;;5069385;28;20082;-75
2022/07/26 13:18:01;;;;;;;9.98;1.65;;;;;;;;;;5068766;28;20036;-75
2022/07/26 13:20:27;;;;;;;7.82;1.30;;;;;;;;;;5064646;28;20021;-75
2022/07/26 13:22:54;;;;;;;4.72;1.20;;;;;;;;;;5065486;28;20027;-75
2022/07/26 13:25:20;;;;;;;7.97;1.40;;;;;;;;;;5067771;28;20034;-75
2022/07/26 13:27:46;;;;;;;4.75;0.90;;;;;;;;;;5070443;28;20044;-74
2022/07/26 13:30:12;;;;;;;4.57;1.10;;;;;;;;;;5065920;28;20486;-73
2022/07/26 13:32:38;;;;;;;8.55;1.20;;;;;;;;;;5063941;28;20028;-73
2022/07/26 13:35:04;;;;;;;1.80;0.95;;;;;;;;;;5067876;28;20017;-73
2022/07/26 13:37:30;;;;;;;2.38;0.82;;;;;;;;;;5069596;28;20043;-73
2022/07/26 13:39:57;;;;;;;4.40;0.90;;;;;;;;;;5068944;28;20432;-73
2022/07/26 13:42:23;;;;;;;4.22;1.00;;;;;;;;;;5069175;28;20056;-76
2022/07/26 13:44:49;;;;;;;7.20;1.50;;;;;;;;;;5069379;28;20029;-75
2022/07/26 13:47:15;;;;;;;4.18;1.13;;;;;;;;;;5070000;28;20032;-70
2022/07/26 13:49:41;;;;;;;2.75;1.50;;;;;;;;;;5068810;28;20537;-70
2022/07/26 13:52:08;;;;;;;8.65;0.82;;;;;;;;;;5071177;28;20021;-68
2022/07/26 13:54:34;;;;;;;3.20;1.00;;;;;;;;;;5067631;28;20029;-68
2022/07/26 13:57:02;;;;;;;2.97;0.90;;;;;;;;;;5079522;28;20374;-68
2022/07/26 13:59:28;;;;;;;5.70;1.08;;;;;;;;;;5070223;28;20028;-71
2022/07/26 14:01:54;;;;;;;2.50;0.90;;;;;;;;;;5065548;28;20051;-71
2022/07/26 14:04:21;;;;;;;5.13;1.20;;;;;;;;;;5062761;28;20056;-71
2022/07/26 14:06:47;;;;;;;3.25;1.23;;;;;;;;;;5067088;28;20032;-71
2022/07/26 14:09:14;;;;;;;3.58;1.02;;;;;;;;;;5065556;28;20027;-70
2022/07/26 14:11:41;;;;;;;4.68;1.15;;;;;;;;;;5066874;28;20032;-70
2022/07/26 14:14:07;;;;;;;4.15;0.93;;;;;;;;;;5069249;28;20025;-70
2022/07/26 14:16:33;;;;;;;3.92;1.02;;;;;;;;;;5065986;28;20025;-70
2022/07/26 14:18:59;;;;;;;5.40;1.38;;;;;;;;;;5052218;28;20036;-70
2022/07/26 14:21:26;;;;;;;6.38;1.17;;;;;;;;;;5064739;28;20143;-70
2022/07/26 14:23:52;;;;;;;7.18;1.17;;;;;;;;;;5067295;28;20154;-70
2022/07/26 14:26:18;;;;;;;4.70;0.95;;;;;;;;;;5068907;28;20523;-70
2022/07/26 14:28:45;;;;;;;5.45;0.93;;;;;;;;;;5068492;28;20048;-70
2022/07/26 14:31:11;;;;;;;2.08;1.10;;;;;;;;;;5067097;28;20101;-70
2022/07/26 14:33:37;;;;;;;4.22;1.40;;;;;;;;;;5069631;28;20058;-70
2022/07/26 14:36:03;;;;;;;3.58;1.20;;;;;;;;;;5067955;28;20115;-70
2022/07/26 14:38:29;;;;;;;4.65;0.82;;;;;;;;;;5070350;28;20490;-70
2022/07/26 14:40:56;;;;;;;8.80;1.23;;;;;;;;;;5070596;28;20139;-70
2022/07/26 14:43:22;;;;;;;1.60;0.98;;;;;;;;;;5073123;28;20383;-70